sensor_id;sensor_type;location;lat;lon;timestamp;pressure;altitude;pressure_sealevel;temperature;humidity
29879;BME280;16752;53.364;-1.488;2022-09-21T00:01:26;101452.59;;;22.68;42.13
29879;BME280;16752;53.364;-1.488;2022-09-21T00:04:02;101454.44;;;22.67;41.91
29879;BME280;16752;53.364;-1.488;2022-09-21T00:07:34;101460.59;;;22.68;41.96
29879;BME280;16752;53.364;-1.488;2022-09-21T00:11:12;101448.94;;;22.69;42.09
29879;BME280;16752;53.364;-1.488;2022-09-21T00:17:28;101444.75;;;22.66;41.85
29879;BME280;16752;53.364;-1.488;2022-09-21T00:27:40;101445.19;;;22.62;41.71
29879;BME280;16752;53.364;-1.488;2022-09-21T00:31:08;101450.53;;;22.62;41.86
29879;BME280;16752;53.364;-1.488;2022-09-21T00:34:19;101448.56;;;22.64;42.13
29879;BME280;16752;53.364;-1.488;2022-09-21T00:41:40;101444.91;;;22.65;42.27
29879;BME280;16752;53.364;-1.488;2022-09-21T00:45:03;101448.56;;;22.64;42.01
29879;BME280;16752;53.364;-1.488;2022-09-21T00:48:27;101453.91;;;22.64;42.35
29879;BME280;16752;53.364;-1.488;2022-09-21T00:54:49;101451.53;;;22.61;42.08
29879;BME280;16752;53.364;-1.488;2022-09-21T00:57:51;101453.22;;;22.62;42.06
29879;BME280;16752;53.364;-1.488;2022-09-21T01:04:26;101448.34;;;22.57;42.17
29879;BME280;16752;53.364;-1.488;2022-09-21T01:07:25;101444.69;;;22.58;42.13
29879;BME280;16752;53.364;-1.488;2022-09-21T01:24:29;101437.09;;;22.53;42.06
29879;BME280;16752;53.364;-1.488;2022-09-21T01:27:48;101448.91;;;22.51;42.21
29879;BME280;16752;53.364;-1.488;2022-09-21T01:31:12;101441.91;;;22.50;41.85
29879;BME280;16752;53.364;-1.488;2022-09-21T01:34:09;101437.72;;;22.47;41.89
29879;BME280;16752;53.364;-1.488;2022-09-21T01:37:21;101431.00;;;22.43;41.76
29879;BME280;16752;53.364;-1.488;2022-09-21T01:40:14;101431.00;;;22.43;41.97
29879;BME280;16752;53.364;-1.488;2022-09-21T01:43:23;101425.81;;;22.42;42.01
29879;BME280;16752;53.364;-1.488;2022-09-21T01:46:29;101427.28;;;22.36;42.22
29879;BME280;16752;53.364;-1.488;2022-09-21T01:49:47;101428.53;;;22.32;41.96
29879;BME280;16752;53.364;-1.488;2022-09-21T01:52:37;101426.47;;;22.26;42.31
29879;BME280;16752;53.364;-1.488;2022-09-21T01:55:27;101428.38;;;22.16;42.36
29879;BME280;16752;53.364;-1.488;2022-09-21T02:01:02;101411.56;;;22.06;42.52
29879;BME280;16752;53.364;-1.488;2022-09-21T02:04:20;101410.84;;;22.04;42.66
29879;BME280;16752;53.364;-1.488;2022-09-21T02:07:18;101410.16;;;22.02;42.52
29879;BME280;16752;53.364;-1.488;2022-09-21T02:13:36;101404.75;;;21.93;42.72
29879;BME280;16752;53.364;-1.488;2022-09-21T02:16:25;101401.50;;;21.90;42.81
29879;BME280;16752;53.364;-1.488;2022-09-21T02:28:01;101391.22;;;21.77;43.10
29879;BME280;16752;53.364;-1.488;2022-09-21T02:31:00;101397.69;;;21.75;43.17
29879;BME280;16752;53.364;-1.488;2022-09-21T02:34:24;101402.34;;;21.73;43.15
29879;BME280;16752;53.364;-1.488;2022-09-21T02:37:26;101401.50;;;21.72;42.92
29879;BME280;16752;53.364;-1.488;2022-09-21T02:55:47;101393.66;;;21.71;43.06
29879;BME280;16752;53.364;-1.488;2022-09-21T02:58:45;101388.31;;;21.71;43.34
29879;BME280;16752;53.364;-1.488;2022-09-21T03:01:43;101388.47;;;21.69;43.25
29879;BME280;16752;53.364;-1.488;2022-09-21T03:04:42;101381.56;;;21.66;43.29
29879;BME280;16752;53.364;-1.488;2022-09-21T03:07:55;101374.69;;;21.64;43.31
29879;BME280;16752;53.364;-1.488;2022-09-21T03:11:02;101371.34;;;21.62;43.37
29879;BME280;16752;53.364;-1.488;2022-09-21T03:13:52;101381.31;;;21.60;43.34
29879;BME280;16752;53.364;-1.488;2022-09-21T03:16:37;101374.47;;;21.57;43.27
29879;BME280;16752;53.364;-1.488;2022-09-21T03:19:38;101372.78;;;21.56;43.33
29879;BME280;16752;53.364;-1.488;2022-09-21T03:22:35;101374.47;;;21.57;43.28
29879;BME280;16752;53.364;-1.488;2022-09-21T03:25:15;101372.94;;;21.55;43.27
29879;BME280;16752;53.364;-1.488;2022-09-21T03:28:24;101374.63;;;21.56;43.33
29879;BME280;16752;53.364;-1.488;2022-09-21T03:30:58;101376.44;;;21.55;43.60
29879;BME280;16752;53.364;-1.488;2022-09-21T03:41:02;101370.81;;;21.58;43.46
29879;BME280;16752;53.364;-1.488;2022-09-21T03:43:52;101377.66;;;21.61;43.54
29879;BME280;16752;53.364;-1.488;2022-09-21T03:47:07;101372.34;;;21.61;43.37
29879;BME280;16752;53.364;-1.488;2022-09-21T03:53:15;101371.34;;;21.62;43.24
29879;BME280;16752;53.364;-1.488;2022-09-21T03:56:11;101364.34;;;21.61;43.20
29879;BME280;16752;53.364;-1.488;2022-09-21T03:59:07;101361.81;;;21.59;43.41
29879;BME280;16752;53.364;-1.488;2022-09-21T04:02:12;101367.44;;;21.56;43.28
29879;BME280;16752;53.364;-1.488;2022-09-21T04:05:32;101363.25;;;21.54;43.10
29879;BME280;16752;53.364;-1.488;2022-09-21T04:08:53;101367.91;;;21.52;43.57
29879;BME280;16752;53.364;-1.488;2022-09-21T04:12:17;101361.19;;;21.48;43.52
29879;BME280;16752;53.364;-1.488;2022-09-21T04:15:25;101352.34;;;21.47;43.39
29879;BME280;16752;53.364;-1.488;2022-09-21T04:18:28;101353.19;;;21.48;43.22
29879;BME280;16752;53.364;-1.488;2022-09-21T04:21:52;101355.13;;;21.46;43.43
29879;BME280;16752;53.364;-1.488;2022-09-21T04:24:58;101347.28;;;21.44;43.39
29879;BME280;16752;53.364;-1.488;2022-09-21T04:28:02;101349.81;;;21.46;43.39
29879;BME280;16752;53.364;-1.488;2022-09-21T04:34:30;101342.78;;;21.45;43.36
29879;BME280;16752;53.364;-1.488;2022-09-21T04:37:19;101339.97;;;21.46;43.30
29879;BME280;16752;53.364;-1.488;2022-09-21T04:43:50;101347.84;;;21.48;43.31
29879;BME280;16752;53.364;-1.488;2022-09-21T04:46:42;101355.56;;;21.51;43.17
29879;BME280;16752;53.364;-1.488;2022-09-21T04:49:36;101349.22;;;21.52;43.31
29879;BME280;16752;53.364;-1.488;2022-09-21T04:52:42;101358.91;;;21.53;43.32
29879;BME280;16752;53.364;-1.488;2022-09-21T04:55:58;101357.09;;;21.53;43.42
29879;BME280;16752;53.364;-1.488;2022-09-21T05:01:41;101352.28;;;21.57;42.88
29879;BME280;16752;53.364;-1.488;2022-09-21T05:11:20;101350.97;;;21.71;42.99
29879;BME280;16752;53.364;-1.488;2022-09-21T05:14:12;101348.84;;;21.74;43.20
29879;BME280;16752;53.364;-1.488;2022-09-21T05:17:17;101349.38;;;21.78;42.83
29879;BME280;16752;53.364;-1.488;2022-09-21T05:19:55;101344.03;;;21.78;43.00
29879;BME280;16752;53.364;-1.488;2022-09-21T05:22:49;101352.03;;;21.78;43.10
29879;BME280;16752;53.364;-1.488;2022-09-21T05:25:57;101349.69;;;21.75;42.90
29879;BME280;16752;53.364;-1.488;2022-09-21T05:29:06;101344.69;;;21.62;43.21
29879;BME280;16752;53.364;-1.488;2022-09-21T05:32:30;101345.47;;;21.72;43.08
29879;BME280;16752;53.364;-1.488;2022-09-21T05:38:41;101352.22;;;21.66;43.18
29879;BME280;16752;53.364;-1.488;2022-09-21T05:41:46;101345.22;;;21.65;43.42
29879;BME280;16752;53.364;-1.488;2022-09-21T05:44:45;101346.22;;;21.64;43.28
29879;BME280;16752;53.364;-1.488;2022-09-21T05:47:42;101355.72;;;21.67;43.24
29879;BME280;16752;53.364;-1.488;2022-09-21T06:00:04;101363.47;;;21.70;43.67
29879;BME280;16752;53.364;-1.488;2022-09-21T06:06:43;101365.53;;;21.76;43.31
29879;BME280;16752;53.364;-1.488;2022-09-21T06:13:29;101369.94;;;21.85;43.67
29879;BME280;16752;53.364;-1.488;2022-09-21T06:16:40;101366.00;;;21.89;43.25
29879;BME280;16752;53.364;-1.488;2022-09-21T06:25:54;101368.16;;;22.04;43.61
29879;BME280;16752;53.364;-1.488;2022-09-21T06:32:28;101374.47;;;22.12;43.37
29879;BME280;16752;53.364;-1.488;2022-09-21T06:42:41;101381.50;;;22.13;43.25
29879;BME280;16752;53.364;-1.488;2022-09-21T06:45:31;101375.84;;;22.16;43.22
29879;BME280;16752;53.364;-1.488;2022-09-21T07:08:17;101369.53;;;22.35;43.34
29879;BME280;16752;53.364;-1.488;2022-09-21T07:14:04;101366.38;;;22.40;43.06
29879;BME280;16752;53.364;-1.488;2022-09-21T07:16:36;101365.78;;;22.46;43.11
29879;BME280;16752;53.364;-1.488;2022-09-21T07:19:25;101367.28;;;22.48;43.06
29879;BME280;16752;53.364;-1.488;2022-09-21T07:22:11;101369.66;;;22.51;42.97
29879;BME280;16752;53.364;-1.488;2022-09-21T07:24:44;101352.31;;;22.55;43.10
29879;BME280;16752;53.364;-1.488;2022-09-21T07:30:17;101358.06;;;22.61;42.66
29879;BME280;16752;53.364;-1.488;2022-09-21T07:32:50;101360.25;;;22.65;42.11
29879;BME280;16752;53.364;-1.488;2022-09-21T07:35:24;101364.13;;;22.71;41.94
29879;BME280;16752;53.364;-1.488;2022-09-21T07:37:52;101355.97;;;22.72;41.79
29879;BME280;16752;53.364;-1.488;2022-09-21T07:40:23;101363.22;;;22.80;41.45
29879;BME280;16752;53.364;-1.488;2022-09-21T07:42:49;101359.28;;;22.84;41.39
29879;BME280;16752;53.364;-1.488;2022-09-21T07:45:19;101362.16;;;22.91;41.31
29879;BME280;16752;53.364;-1.488;2022-09-21T07:47:46;101356.00;;;22.98;41.25
29879;BME280;16752;53.364;-1.488;2022-09-21T07:50:12;101360.59;;;23.06;41.04
29879;BME280;16752;53.364;-1.488;2022-09-21T07:52:37;101361.78;;;23.11;41.07
29879;BME280;16752;53.364;-1.488;2022-09-21T07:55:03;101370.31;;;23.15;41.22
29879;BME280;16752;53.364;-1.488;2022-09-21T07:57:30;101357.47;;;23.18;41.06
29879;BME280;16752;53.364;-1.488;2022-09-21T08:00:14;101358.22;;;23.29;40.94
29879;BME280;16752;53.364;-1.488;2022-09-21T08:02:41;101356.41;;;23.37;41.25
29879;BME280;16752;53.364;-1.488;2022-09-21T08:05:06;101357.97;;;23.48;40.77
29879;BME280;16752;53.364;-1.488;2022-09-21T08:07:32;101355.53;;;23.63;40.66
29879;BME280;16752;53.364;-1.488;2022-09-21T08:09:59;101353.75;;;23.80;40.31
29879;BME280;16752;53.364;-1.488;2022-09-21T08:12:24;101354.94;;;23.85;39.62
29879;BME280;16752;53.364;-1.488;2022-09-21T08:14:50;101351.16;;;24.12;39.36
29879;BME280;16752;53.364;-1.488;2022-09-21T08:17:16;101351.78;;;23.90;38.26
29879;BME280;16752;53.364;-1.488;2022-09-21T08:19:41;101356.16;;;23.99;38.72
29879;BME280;16752;53.364;-1.488;2022-09-21T08:22:07;101348.19;;;24.48;37.80
29879;BME280;16752;53.364;-1.488;2022-09-21T08:24:32;101352.56;;;24.57;37.60
29879;BME280;16752;53.364;-1.488;2022-09-21T08:26:58;101349.38;;;24.69;37.59
29879;BME280;16752;53.364;-1.488;2022-09-21T08:29:24;101354.38;;;24.89;37.24
29879;BME280;16752;53.364;-1.488;2022-09-21T08:32:07;101354.56;;;24.95;37.39
29879;BME280;16752;53.364;-1.488;2022-09-21T08:34:33;101353.34;;;25.22;36.52
29879;BME280;16752;53.364;-1.488;2022-09-21T08:36:58;101358.22;;;25.19;36.15
29879;BME280;16752;53.364;-1.488;2022-09-21T08:39:24;101355.06;;;24.66;36.86
29879;BME280;16752;53.364;-1.488;2022-09-21T08:44:20;101357.72;;;25.07;36.31
29879;BME280;16752;53.364;-1.488;2022-09-21T08:46:47;101362.19;;;25.31;36.59
29879;BME280;16752;53.364;-1.488;2022-09-21T08:49:16;101361.94;;;25.02;36.62
29879;BME280;16752;53.364;-1.488;2022-09-21T08:51:59;101362.53;;;25.28;35.98
29879;BME280;16752;53.364;-1.488;2022-09-21T08:56:59;101363.44;;;25.51;35.49
29879;BME280;16752;53.364;-1.488;2022-09-21T09:22:03;101355.50;;;25.74;33.52
29879;BME280;16752;53.364;-1.488;2022-09-21T09:28:00;101360.53;;;26.00;33.44
29879;BME280;16752;53.364;-1.488;2022-09-21T10:08:28;101353.28;;;25.78;32.63
29879;BME280;16752;53.364;-1.488;2022-09-21T10:11:45;101354.03;;;26.26;32.34
29879;BME280;16752;53.364;-1.488;2022-09-21T10:59:40;101319.88;;;29.16;25.24
29879;BME280;16752;53.364;-1.488;2022-09-21T11:40:17;101289.41;;;27.38;26.37
29879;BME280;16752;53.364;-1.488;2022-09-21T12:26:08;101268.44;;;28.27;24.21
29879;BME280;16752;53.364;-1.488;2022-09-21T12:53:34;101247.66;;;29.18;21.19
29879;BME280;16752;53.364;-1.488;2022-09-21T13:46:53;101214.94;;;27.82;25.58
29879;BME280;16752;53.364;-1.488;2022-09-21T14:25:27;101186.75;;;28.96;22.39
29879;BME280;16752;53.364;-1.488;2022-09-21T16:21:38;101114.03;;;26.99;27.81
29879;BME280;16752;53.364;-1.488;2022-09-21T16:27:51;101102.75;;;27.46;27.07
29879;BME280;16752;53.364;-1.488;2022-09-21T16:34:33;101100.50;;;27.28;27.12
29879;BME280;16752;53.364;-1.488;2022-09-21T16:40:26;101093.03;;;27.45;26.60
29879;BME280;16752;53.364;-1.488;2022-09-21T16:46:42;101094.38;;;26.62;28.01
29879;BME280;16752;53.364;-1.488;2022-09-21T16:50:10;101092.06;;;27.10;27.34
29879;BME280;16752;53.364;-1.488;2022-09-21T16:52:36;101105.09;;;26.92;28.23
29879;BME280;16752;53.364;-1.488;2022-09-21T17:36:22;101114.13;;;26.40;29.38
29879;BME280;16752;53.364;-1.488;2022-09-21T17:42:15;101114.66;;;26.20;30.12
29879;BME280;16752;53.364;-1.488;2022-09-21T17:44:46;101113.94;;;26.27;29.58
29879;BME280;16752;53.364;-1.488;2022-09-21T17:54:07;101105.66;;;25.99;30.60
29879;BME280;16752;53.364;-1.488;2022-09-21T18:00:03;101094.72;;;25.63;31.18
29879;BME280;16752;53.364;-1.488;2022-09-21T18:02:43;101102.28;;;25.59;31.46
29879;BME280;16752;53.364;-1.488;2022-09-21T18:05:49;101101.91;;;25.47;31.71
29879;BME280;16752;53.364;-1.488;2022-09-21T18:08:16;101101.78;;;25.41;31.90
29879;BME280;16752;53.364;-1.488;2022-09-21T18:10:43;101101.66;;;25.34;32.07
29879;BME280;16752;53.364;-1.488;2022-09-21T18:13:18;101109.41;;;25.29;32.28
29879;BME280;16752;53.364;-1.488;2022-09-21T18:21:27;101085.25;;;25.06;32.91
29879;BME280;16752;53.364;-1.488;2022-09-21T18:26:46;101094.91;;;25.15;32.38
29879;BME280;16752;53.364;-1.488;2022-09-21T18:46:28;101087.16;;;24.89;34.31
29879;BME280;16752;53.364;-1.488;2022-09-21T18:58:39;101085.50;;;24.88;33.96
29879;BME280;16752;53.364;-1.488;2022-09-21T19:01:12;101088.00;;;24.90;33.80
29879;BME280;16752;53.364;-1.488;2022-09-21T19:04:08;101094.19;;;24.90;33.88
29879;BME280;16752;53.364;-1.488;2022-09-21T19:07:27;101091.50;;;24.90;33.97
29879;BME280;16752;53.364;-1.488;2022-09-21T19:15:50;101092.00;;;24.94;33.80
29879;BME280;16752;53.364;-1.488;2022-09-21T19:29:37;101086.81;;;24.92;33.88
29879;BME280;16752;53.364;-1.488;2022-09-21T19:32:30;101078.13;;;24.90;33.89
29879;BME280;16752;53.364;-1.488;2022-09-21T19:35:23;101078.94;;;24.91;34.02
29879;BME280;16752;53.364;-1.488;2022-09-21T19:38:24;101076.91;;;24.93;33.87
29879;BME280;16752;53.364;-1.488;2022-09-21T19:41:29;101077.28;;;24.90;34.28
29879;BME280;16752;53.364;-1.488;2022-09-21T19:47:04;101070.59;;;24.86;34.35
29879;BME280;16752;53.364;-1.488;2022-09-21T19:53:15;101078.16;;;24.82;34.79
29879;BME280;16752;53.364;-1.488;2022-09-21T19:56:26;101065.59;;;24.83;34.46
29879;BME280;16752;53.364;-1.488;2022-09-21T20:02:27;101073.81;;;24.81;34.21
29879;BME280;16752;53.364;-1.488;2022-09-21T20:05:47;101069.19;;;24.75;34.39
29879;BME280;16752;53.364;-1.488;2022-09-21T20:14:28;101066.53;;;24.67;34.72
29879;BME280;16752;53.364;-1.488;2022-09-21T20:17:44;101068.91;;;24.62;35.05
29879;BME280;16752;53.364;-1.488;2022-09-21T20:23:20;101066.59;;;24.51;34.88
29879;BME280;16752;53.364;-1.488;2022-09-21T20:25:56;101059.78;;;24.40;34.91
29879;BME280;16752;53.364;-1.488;2022-09-21T20:29:07;101059.00;;;24.31;35.15
29879;BME280;16752;53.364;-1.488;2022-09-21T20:31:47;101058.19;;;24.15;35.38
29879;BME280;16752;53.364;-1.488;2022-09-21T20:34:32;101054.00;;;24.04;35.65
29879;BME280;16752;53.364;-1.488;2022-09-21T20:38:06;101058.06;;;23.92;35.69
29879;BME280;16752;53.364;-1.488;2022-09-21T20:41:01;101049.72;;;23.78;36.00
29879;BME280;16752;53.364;-1.488;2022-09-21T20:43:29;101050.75;;;23.69;35.72
29879;BME280;16752;53.364;-1.488;2022-09-21T20:46:10;101050.56;;;23.63;36.00
29879;BME280;16752;53.364;-1.488;2022-09-21T20:48:41;101049.72;;;23.54;36.13
29879;BME280;16752;53.364;-1.488;2022-09-21T20:51:21;101050.91;;;23.43;36.31
29879;BME280;16752;53.364;-1.488;2022-09-21T20:53:55;101050.09;;;23.43;36.16
29879;BME280;16752;53.364;-1.488;2022-09-21T20:56:33;101055.41;;;23.35;36.50
29879;BME280;16752;53.364;-1.488;2022-09-21T20:59:08;101049.75;;;23.22;36.98
29879;BME280;16752;53.364;-1.488;2022-09-21T21:01:53;101048.56;;;23.16;37.09
29879;BME280;16752;53.364;-1.488;2022-09-21T21:21:26;101032.66;;;22.90;37.30
29879;BME280;16752;53.364;-1.488;2022-09-21T21:23:54;101031.25;;;22.70;37.87
29879;BME280;16752;53.364;-1.488;2022-09-21T21:26:38;101029.31;;;22.88;37.20
29879;BME280;16752;53.364;-1.488;2022-09-21T21:29:04;101026.63;;;22.88;37.32
29879;BME280;16752;53.364;-1.488;2022-09-21T21:31:36;101024.94;;;22.79;37.44
29879;BME280;16752;53.364;-1.488;2022-09-21T21:34:01;101018.13;;;22.84;37.29
29879;BME280;16752;53.364;-1.488;2022-09-21T21:36:27;101021.63;;;22.85;37.32
29879;BME280;16752;53.364;-1.488;2022-09-21T21:38:52;101020.97;;;22.83;37.21
29879;BME280;16752;53.364;-1.488;2022-09-21T21:41:17;101028.28;;;22.81;37.47
29879;BME280;16752;53.364;-1.488;2022-09-21T21:43:43;101025.41;;;22.66;37.61
29879;BME280;16752;53.364;-1.488;2022-09-21T21:46:09;101025.56;;;22.73;37.20
29879;BME280;16752;53.364;-1.488;2022-09-21T21:48:35;101023.72;;;22.73;37.29
29879;BME280;16752;53.364;-1.488;2022-09-21T21:51:04;101029.56;;;22.69;37.46
29879;BME280;16752;53.364;-1.488;2022-09-21T21:53:39;101029.72;;;22.59;38.03
29879;BME280;16752;53.364;-1.488;2022-09-21T21:56:08;101027.38;;;22.56;37.56
29879;BME280;16752;53.364;-1.488;2022-09-21T21:58:34;101022.84;;;22.48;37.71
29879;BME280;16752;53.364;-1.488;2022-09-21T22:01:10;101025.56;;;22.56;37.53
29879;BME280;16752;53.364;-1.488;2022-09-21T22:03:36;101028.22;;;22.56;37.62
29879;BME280;16752;53.364;-1.488;2022-09-21T22:06:05;101017.81;;;22.45;37.74
29879;BME280;16752;53.364;-1.488;2022-09-21T22:08:32;101012.75;;;22.26;37.58
29879;BME280;16752;53.364;-1.488;2022-09-21T22:10:59;101015.81;;;22.47;37.79
29879;BME280;16752;53.364;-1.488;2022-09-21T22:13:25;101014.41;;;22.27;38.07
29879;BME280;16752;53.364;-1.488;2022-09-21T22:15:51;101009.91;;;22.27;37.61
29879;BME280;16752;53.364;-1.488;2022-09-21T22:18:17;101013.06;;;22.23;38.00
29879;BME280;16752;53.364;-1.488;2022-09-21T22:20:43;101010.78;;;22.36;37.82
29879;BME280;16752;53.364;-1.488;2022-09-21T22:23:12;101011.75;;;22.27;37.99
29879;BME280;16752;53.364;-1.488;2022-09-21T22:25:38;101014.41;;;22.27;37.65
29879;BME280;16752;53.364;-1.488;2022-09-21T22:28:06;101009.06;;;22.27;37.80
29879;BME280;16752;53.364;-1.488;2022-09-21T22:30:35;101007.25;;;22.27;38.26
29879;BME280;16752;53.364;-1.488;2022-09-21T22:33:04;101008.41;;;22.33;37.87
29879;BME280;16752;53.364;-1.488;2022-09-21T22:35:37;101001.91;;;22.27;38.04
29879;BME280;16752;53.364;-1.488;2022-09-21T22:38:07;101004.03;;;22.16;37.94
29879;BME280;16752;53.364;-1.488;2022-09-21T22:40:40;101008.41;;;22.25;37.65
29879;BME280;16752;53.364;-1.488;2022-09-21T22:43:05;101001.91;;;22.27;37.69
29879;BME280;16752;53.364;-1.488;2022-09-21T22:45:36;101004.78;;;22.34;37.56
29879;BME280;16752;53.364;-1.488;2022-09-21T22:48:02;100999.44;;;22.34;37.57
29879;BME280;16752;53.364;-1.488;2022-09-21T22:50:27;101004.72;;;22.18;37.74
29879;BME280;16752;53.364;-1.488;2022-09-21T22:52:53;101009.06;;;22.27;37.33
29879;BME280;16752;53.364;-1.488;2022-09-21T22:55:19;101005.81;;;22.07;37.81
29879;BME280;16752;53.364;-1.488;2022-09-21T22:57:47;101013.81;;;22.07;37.75
29879;BME280;16752;53.364;-1.488;2022-09-21T23:00:13;101010.50;;;21.87;38.06
29879;BME280;16752;53.364;-1.488;2022-09-21T23:02:47;101009.06;;;22.19;37.20
29879;BME280;16752;53.364;-1.488;2022-09-21T23:05:17;101010.56;;;22.21;37.39
29879;BME280;16752;53.364;-1.488;2022-09-21T23:07:51;101013.34;;;21.86;37.68
29879;BME280;16752;53.364;-1.488;2022-09-21T23:10:17;101005.84;;;21.89;37.38
29879;BME280;16752;53.364;-1.488;2022-09-21T23:12:45;101007.03;;;22.13;37.24
29879;BME280;16752;53.364;-1.488;2022-09-21T23:15:15;100991.03;;;22.13;37.09
29879;BME280;16752;53.364;-1.488;2022-09-21T23:17:45;100990.69;;;22.16;37.23
29879;BME280;16752;53.364;-1.488;2022-09-21T23:20:11;100996.56;;;21.93;37.31
29879;BME280;16752;53.364;-1.488;2022-09-21T23:22:38;100994.72;;;22.20;37.16
29879;BME280;16752;53.364;-1.488;2022-09-21T23:25:04;100986.88;;;22.18;37.01
29879;BME280;16752;53.364;-1.488;2022-09-21T23:27:32;100987.59;;;22.03;37.49
29879;BME280;16752;53.364;-1.488;2022-09-21T23:30:06;100979.81;;;21.83;37.87
29879;BME280;16752;53.364;-1.488;2022-09-21T23:32:32;100985.72;;;21.95;37.61
29879;BME280;16752;53.364;-1.488;2022-09-21T23:34:58;100979.66;;;21.85;37.78
29879;BME280;16752;53.364;-1.488;2022-09-21T23:37:24;100973.63;;;22.09;37.33
29879;BME280;16752;53.364;-1.488;2022-09-21T23:39:51;100976.03;;;22.20;37.14
29879;BME280;16752;53.364;-1.488;2022-09-21T23:42:39;100974.03;;;22.22;37.33
29879;BME280;16752;53.364;-1.488;2022-09-21T23:45:08;100969.88;;;21.67;37.90
29879;BME280;16752;53.364;-1.488;2022-09-21T23:47:41;100959.22;;;21.93;37.43
29879;BME280;16752;53.364;-1.488;2022-09-21T23:50:26;100956.13;;;22.06;37.46
29879;BME280;16752;53.364;-1.488;2022-09-21T23:53:24;100960.97;;;22.11;37.32
29879;BME280;16752;53.364;-1.488;2022-09-21T23:55:50;100954.13;;;22.08;37.66
29879;BME280;16752;53.364;-1.488;2022-09-21T23:58:24;100954.94;;;22.09;37.75
